WARNING - Change wsUserSettings.php: $SITE["topfolder"] from : public_html./ to: ./
Welkom op onze website -


Webcam zuid Meer informatie Webcam zuid


Webcam noord Meer informatie Webcam noord


Onweer radar Meer informatie blitzortung!


Regen radar Meer informatie rain snow radar


Bezoek onze andere website:

Template documentation
and downloads

Onze andere website


U vindt ons ook hier:

Het Weer Aktueel

UK Metoffice

European Weather Network

WeatherCloud

Weather Underground

Austria Weather Network

AWEKAS

Citizen Weather Observer Program (CWOP)

HAMweather, WeatherForYou, PWS Weather

Wetterpage 24

Roosendaal op internet

VWKWEB

RadioZuidWestFM



Het weer levert geen direct gevaar op.    Er zijn geen waarschuwingen afgegeven.

METAR rapporten vliegvelden

   
EHWO - Bergen op Zoom
Gewijzigd: 05-06-2020 20:35
Grotendeels bewolkt  
Grotendeels bewolkt  
   Wind: NW 14.8 km/h
Wind: NW 14.8 km/h
Temperatuur: 11°C
Dauwpunt: 7°C
Vochtigheid: 77%
Barometer: 997 hPa
Bewolking: Grotendeels bewolkt
Zicht: meer dan 10 km
Bewolking: Licht bewolkt 1400 ft,
Licht bewolkt 1500 ft,
Gedeeltelijk bewolkt 2800 ft,
Grotendeels bewolkt 9500 ft
EHWO 051835Z AUTO 31008KT 250V350 9999 FEW014 FEW015CB SCT028 BKN095 11/07 Q0997 BLU
EHWO - Woensdrecht
Gewijzigd: 05-06-2020 20:35
Grotendeels bewolkt  
Grotendeels bewolkt  
   Wind: NW 14.8 km/h
Wind: NW 14.8 km/h
Temperatuur: 11°C
Dauwpunt: 7°C
Vochtigheid: 77%
Barometer: 997 hPa
Bewolking: Grotendeels bewolkt
Zicht: meer dan 10 km
Bewolking: Licht bewolkt 1400 ft,
Licht bewolkt 1500 ft,
Gedeeltelijk bewolkt 2800 ft,
Grotendeels bewolkt 9500 ft
EHWO 051835Z AUTO 31008KT 250V350 9999 FEW014 FEW015CB SCT028 BKN095 11/07 Q0997 BLU
EHWO - Steenbergen
Gewijzigd: 05-06-2020 20:35
Grotendeels bewolkt  
Grotendeels bewolkt  
   Wind: NW 14.8 km/h
Wind: NW 14.8 km/h
Temperatuur: 11°C
Dauwpunt: 7°C
Vochtigheid: 77%
Barometer: 997 hPa
Bewolking: Grotendeels bewolkt
Zicht: meer dan 10 km
Bewolking: Licht bewolkt 1400 ft,
Licht bewolkt 1500 ft,
Gedeeltelijk bewolkt 2800 ft,
Grotendeels bewolkt 9500 ft
EHWO 051835Z AUTO 31008KT 250V350 9999 FEW014 FEW015CB SCT028 BKN095 11/07 Q0997 BLU
EHWO - Oud-Gastel
Gewijzigd: 05-06-2020 20:35
Grotendeels bewolkt  
Grotendeels bewolkt  
   Wind: NW 14.8 km/h
Wind: NW 14.8 km/h
Temperatuur: 11°C
Dauwpunt: 7°C
Vochtigheid: 77%
Barometer: 997 hPa
Bewolking: Grotendeels bewolkt
Zicht: meer dan 10 km
Bewolking: Licht bewolkt 1400 ft,
Licht bewolkt 1500 ft,
Gedeeltelijk bewolkt 2800 ft,
Grotendeels bewolkt 9500 ft
EHWO 051835Z AUTO 31008KT 250V350 9999 FEW014 FEW015CB SCT028 BKN095 11/07 Q0997 BLU
EHWO - Oudenbosch
Gewijzigd: 05-06-2020 20:35
Grotendeels bewolkt  
Grotendeels bewolkt  
   Wind: NW 14.8 km/h
Wind: NW 14.8 km/h
Temperatuur: 11°C
Dauwpunt: 7°C
Vochtigheid: 77%
Barometer: 997 hPa
Bewolking: Grotendeels bewolkt
Zicht: meer dan 10 km
Bewolking: Licht bewolkt 1400 ft,
Licht bewolkt 1500 ft,
Gedeeltelijk bewolkt 2800 ft,
Grotendeels bewolkt 9500 ft
EHWO 051835Z AUTO 31008KT 250V350 9999 FEW014 FEW015CB SCT028 BKN095 11/07 Q0997 BLU
EHWO - Rucphen
Gewijzigd: 05-06-2020 20:35
Grotendeels bewolkt  
Grotendeels bewolkt  
   Wind: NW 14.8 km/h
Wind: NW 14.8 km/h
Temperatuur: 11°C
Dauwpunt: 7°C
Vochtigheid: 77%
Barometer: 997 hPa
Bewolking: Grotendeels bewolkt
Zicht: meer dan 10 km
Bewolking: Licht bewolkt 1400 ft,
Licht bewolkt 1500 ft,
Gedeeltelijk bewolkt 2800 ft,
Grotendeels bewolkt 9500 ft
EHWO 051835Z AUTO 31008KT 250V350 9999 FEW014 FEW015CB SCT028 BKN095 11/07 Q0997 BLU
EHWO - Bergen op Zoom
Gewijzigd: 05-06-2020 20:35
Grotendeels bewolkt  
Grotendeels bewolkt  
   Wind: NW 14.8 km/h
Wind: NW 14.8 km/h
Temperatuur: 11°C
Dauwpunt: 7°C
Vochtigheid: 77%
Barometer: 997 hPa
Bewolking: Grotendeels bewolkt
Zicht: meer dan 10 km
Bewolking: Licht bewolkt 1400 ft,
Licht bewolkt 1500 ft,
Gedeeltelijk bewolkt 2800 ft,
Grotendeels bewolkt 9500 ft
EHWO 051835Z AUTO 31008KT 250V350 9999 FEW014 FEW015CB SCT028 BKN095 11/07 Q0997 BLU
EHWO - Fijnaart
Gewijzigd: 05-06-2020 20:35
Grotendeels bewolkt  
Grotendeels bewolkt  
   Wind: NW 14.8 km/h
Wind: NW 14.8 km/h
Temperatuur: 11°C
Dauwpunt: 7°C
Vochtigheid: 77%
Barometer: 997 hPa
Bewolking: Grotendeels bewolkt
Zicht: meer dan 10 km
Bewolking: Licht bewolkt 1400 ft,
Licht bewolkt 1500 ft,
Gedeeltelijk bewolkt 2800 ft,
Grotendeels bewolkt 9500 ft
EHWO 051835Z AUTO 31008KT 250V350 9999 FEW014 FEW015CB SCT028 BKN095 11/07 Q0997 BLU
EHWO - Ossendrecht
Gewijzigd: 05-06-2020 20:35
Grotendeels bewolkt  
Grotendeels bewolkt  
   Wind: NW 14.8 km/h
Wind: NW 14.8 km/h
Temperatuur: 11°C
Dauwpunt: 7°C
Vochtigheid: 77%
Barometer: 997 hPa
Bewolking: Grotendeels bewolkt
Zicht: meer dan 10 km
Bewolking: Licht bewolkt 1400 ft,
Licht bewolkt 1500 ft,
Gedeeltelijk bewolkt 2800 ft,
Grotendeels bewolkt 9500 ft
EHWO 051835Z AUTO 31008KT 250V350 9999 FEW014 FEW015CB SCT028 BKN095 11/07 Q0997 BLU

Script ontwikkeld door  Saratoga-weather.org Aangepast voor de template door  Weerstation Leuven

Apparatuur in gebruik:

Weerstation
Davis VP2

Weerprogramma
Meteobridge

Weercomputer
Shuttle

Webleverancier
WeservIT

Davis VP2

Meteobridge

Shuttle

WeservIT